M I D A S
Marine Information and Data Acquisition System
Tripno 705 of the Zeeleeuw from 2004-05-03 06:37:17 to 2004-05-03 13:20:30
Back to CruiseResearch ActivitiesStationsMapUnderway DataData graphs

EquipmentUnitsComment
TimeDGPSUTC
LatitudeDGPSDM.mWGS84
LongitudeDGPSDM.mWGS84
HeadingGyrodeg 
SOGDGPSknotsSpeed over ground
COGDGPSdegCourse over ground
DepthEcho soundermeters200 kHz
Missing or incorrect values are displayed as -999
Navigation data collected by the RV Zeeleeuw from 2004-05-03 06:37:17 to 2004-05-03 13:20:30
                                                                                    Next 1000 lines
Time Latitude Longitude Heading SOG COG Depth
2004-05-03 06:37:25 51°13.598 2°56.097 126.9 0.1 174 6.1
2004-05-03 06:37:30 51°13.597 2°56.097 125.6 0.1 167 6.1
2004-05-03 06:37:34 51°13.597 2°56.097 124.3 0.1 188 6.1
2004-05-03 06:37:40 51°13.597 2°56.097 123.3 0.1 185 6.2
2004-05-03 06:37:45 51°13.597 2°56.097 121.9 0.1 189 6.2
2004-05-03 06:37:50 51°13.597 2°56.097 120.5 0.1 190 6.2
2004-05-03 06:37:55 51°13.597 2°56.097 119.2 0.1 209 6.2
2004-05-03 06:38:00 51°13.597 2°56.097 118.3 0.1 225 6.3
2004-05-03 06:38:05 51°13.597 2°56.097 117.6 0.4 277 6.3
2004-05-03 06:38:10 51°13.597 2°56.095 117.5 0.7 293 6.3
2004-05-03 06:38:14 51°13.598 2°56.093 117.6 1.2 288 6.4
2004-05-03 06:38:20 51°13.599 2°56.088 118.4 1.9 294 6.6
2004-05-03 06:38:25 51°13.6 2°56.084 119.2 2.2 296 -999
2004-05-03 06:38:30 51°13.602 2°56.079 120.2 2.7 297 -999
2004-05-03 06:38:36 51°13.604 2°56.072 121 2.9 298 -999
2004-05-03 06:38:41 51°13.606 2°56.066 121.1 3.3 297 -999
2004-05-03 06:38:46 51°13.609 2°56.059 121 3.5 298 -999
2004-05-03 06:38:50 51°13.611 2°56.053 120.7 3.7 297 -999
2004-05-03 06:38:56 51°13.614 2°56.043 120.3 4 297 -999
2004-05-03 06:39:01 51°13.616 2°56.035 120.2 4.2 296 -999
2004-05-03 06:39:06 51°13.619 2°56.026 120.3 4.3 297 -999
2004-05-03 06:39:10 51°13.621 2°56.019 120.4 4.5 296 -999
2004-05-03 06:39:16 51°13.624 2°56.008 120.4 4.6 296 -999
2004-05-03 06:39:21 51°13.627 2°55.999 120.2 4.8 296 -999
2004-05-03 06:39:26 51°13.63 2°55.989 120.1 4.9 296 -999
2004-05-03 06:39:31 51°13.633 2°55.979 120.1 5 296 -999
2004-05-03 06:39:36 51°13.636 2°55.969 120.1 5.1 296 -999
2004-05-03 06:39:41 51°13.64 2°55.958 119.9 5.2 296 -999
2004-05-03 06:39:46 51°13.643 2°55.948 119.6 5.2 296 -999
2004-05-03 06:39:50 51°13.645 2°55.94 119 5.2 295 -999
2004-05-03 06:39:56 51°13.649 2°55.927 118.3 5.2 295 -999
2004-05-03 06:40:01 51°13.652 2°55.917 117.8 5.2 295 -999
2004-05-03 06:40:06 51°13.655 2°55.906 116.8 5.3 294 -999
2004-05-03 06:40:10 51°13.657 2°55.897 115.5 5.3 293 -999
2004-05-03 06:40:16 51°13.661 2°55.884 114.2 5.3 292 -999
2004-05-03 06:40:21 51°13.663 2°55.874 113.1 5.3 291 -999
2004-05-03 06:40:26 51°13.666 2°55.863 111.6 5.3 290 -999
2004-05-03 06:40:30 51°13.667 2°55.854 109.2 5.3 288 -999
2004-05-03 06:40:36 51°13.67 2°55.84 107.1 5.3 286 -999
2004-05-03 06:40:41 51°13.671 2°55.829 104.7 5.3 283 -999
2004-05-03 06:40:46 51°13.673 2°55.817 102.7 5.3 281 -999
2004-05-03 06:40:50 51°13.674 2°55.808 99.6 5.3 278 -999
2004-05-03 06:40:56 51°13.674 2°55.794 97.6 5.2 277 -999
2004-05-03 06:41:01 51°13.675 2°55.784 95.5 4.8 274 -999
2004-05-03 06:41:06 51°13.675 2°55.774 93.7 4.5 273 -999
2004-05-03 06:41:10 51°13.675 2°55.767 91.4 3.8 271 -999
2004-05-03 06:41:14 51°13.675 2°55.761 89.5 3.2 270 10.3
2004-05-03 06:41:20 51°13.675 2°55.754 87.2 2.7 268 10.1
2004-05-03 06:41:25 51°13.675 2°55.75 83.5 2.1 264 10.2
2004-05-03 06:41:30 51°13.675 2°55.746 80.2 1.7 264 10.5
2004-05-03 06:41:34 51°13.674 2°55.744 75.6 1.1 262 5.2
2004-05-03 06:41:40 51°13.674 2°55.742 71.5 0.9 265 11
2004-05-03 06:41:45 51°13.675 2°55.742 67.2 0.3 340 11.1
2004-05-03 06:41:50 51°13.676 2°55.743 62.2 0.8 30 11.4
2004-05-03 06:41:55 51°13.678 2°55.745 55.3 1.4 37 11.8
2004-05-03 06:42:00 51°13.681 2°55.748 48.5 2.3 31 12.3
2004-05-03 06:42:05 51°13.685 2°55.751 37.3 3 21 12.7
2004-05-03 06:42:10 51°13.69 2°55.752 27.8 3.5 15 12.9
2004-05-03 06:42:16 51°13.697 2°55.753 20.3 3.9 8 13.2
2004-05-03 06:42:20 51°13.702 2°55.752 10.8 4.3 1 12.7
2004-05-03 06:42:25 51°13.709 2°55.75 1 5.1 347 12.5
2004-05-03 06:42:30 51°13.716 2°55.746 349.8 5.3 344 11.7
2004-05-03 06:42:35 51°13.723 2°55.74 342.1 5.4 334 10.5
2004-05-03 06:42:40 51°13.729 2°55.735 338.8 5.3 332 9.4
2004-05-03 06:42:45 51°13.736 2°55.729 336 5.2 330 8.8
2004-05-03 06:42:50 51°13.742 2°55.724 334.7 5.2 330 8.8
2004-05-03 06:42:54 51°13.747 2°55.719 333.2 5.3 328 8.6
2004-05-03 06:43:00 51°13.755 2°55.711 332.4 5.6 328 8.5
2004-05-03 06:43:05 51°13.761 2°55.704 331.8 5.8 327 8.6
2004-05-03 06:43:10 51°13.768 2°55.697 331.6 5.9 328 8.7
2004-05-03 06:43:14 51°13.774 2°55.691 331.7 6.1 327 8.7
2004-05-03 06:43:20 51°13.782 2°55.682 332.1 6.2 327 8.7
2004-05-03 06:43:25 51°13.79 2°55.674 332.4 6.3 328 8.7
2004-05-03 06:43:30 51°13.797 2°55.667 333 6.4 328 8.9
2004-05-03 06:43:34 51°13.803 2°55.661 334.1 6.5 329 9.1
2004-05-03 06:43:40 51°13.813 2°55.653 335 6.6 330 9.2
2004-05-03 06:43:45 51°13.821 2°55.645 335.5 6.7 331 9.2
2004-05-03 06:43:50 51°13.829 2°55.638 335.8 6.8 331 9.2
2004-05-03 06:43:55 51°13.838 2°55.631 336 6.8 331 9.2
2004-05-03 06:44:00 51°13.846 2°55.623 336.5 6.9 332 9.1
2004-05-03 06:44:05 51°13.855 2°55.616 337.1 6.9 332 8.8
2004-05-03 06:44:10 51°13.863 2°55.609 337.8 7 333 8.8
2004-05-03 06:44:14 51°13.87 2°55.604 338.7 7 333 8.4
2004-05-03 06:44:20 51°13.881 2°55.596 339.5 7 334 8.5
2004-05-03 06:44:25 51°13.89 2°55.589 340.2 7.1 335 8.5
2004-05-03 06:44:30 51°13.898 2°55.583 340.6 7.1 335 8.6
2004-05-03 06:44:34 51°13.905 2°55.577 340.8 7.1 335 8.4
2004-05-03 06:44:40 51°13.916 2°55.569 341 7.2 335 8.6
2004-05-03 06:44:45 51°13.926 2°55.563 341.2 7.4 336 8.9
2004-05-03 06:44:50 51°13.935 2°55.556 341.4 7.5 336 9
2004-05-03 06:44:54 51°13.943 2°55.551 341.4 7.7 336 9.1
2004-05-03 06:45:00 51°13.955 2°55.542 341.2 7.8 336 9.8
2004-05-03 06:45:05 51°13.965 2°55.535 341.6 8 337 10.3
2004-05-03 06:45:10 51°13.976 2°55.528 342.2 8.1 337 10
2004-05-03 06:45:14 51°13.984 2°55.523 342.9 8.2 338 9.4
2004-05-03 06:45:20 51°13.997 2°55.515 343.5 8.3 338 10
2004-05-03 06:45:25 51°14.008 2°55.508 343.9 8.4 338 10.6
2004-05-03 06:45:30 51°14.018 2°55.5 343.9 8.4 338 10.3
2004-05-03 06:45:34 51°14.027 2°55.495 343.4 8.5 337 10.2
2004-05-03 06:45:40 51°14.04 2°55.486 342.7 8.6 336 10.3
2004-05-03 06:45:45 51°14.051 2°55.478 342.1 8.6 336 10.2
2004-05-03 06:45:50 51°14.062 2°55.47 342 8.7 337 10.3
2004-05-03 06:45:54 51°14.071 2°55.464 342.5 8.9 336 10.4
2004-05-03 06:46:00 51°14.085 2°55.455 342.7 9.1 337 10.6
2004-05-03 06:46:05 51°14.096 2°55.446 342 9.2 335 10.2
2004-05-03 06:46:10 51°14.108 2°55.437 340.9 9.3 335 10.6
2004-05-03 06:46:14 51°14.117 2°55.43 340.3 9.4 334 10.4
2004-05-03 06:46:20 51°14.132 2°55.419 339.6 9.5 334 10
2004-05-03 06:46:25 51°14.143 2°55.409 338.8 9.6 333 10.5
2004-05-03 06:46:30 51°14.155 2°55.399 338.2 9.6 332 -999
2004-05-03 06:46:36 51°14.169 2°55.386 337.5 9.7 331 10.3
2004-05-03 06:46:40 51°14.178 2°55.377 336 9.8 328 10.6
2004-05-03 06:46:45 51°14.19 2°55.365 333.8 9.8 326 10.5
2004-05-03 06:46:50 51°14.201 2°55.352 331.3 9.9 324 10.6
2004-05-03 06:46:54 51°14.209 2°55.342 329.3 10 323 10.5
2004-05-03 06:47:00 51°14.222 2°55.325 327.8 10 321 10.6
2004-05-03 06:47:05 51°14.233 2°55.311 326 10.1 320 10.5
2004-05-03 06:47:10 51°14.244 2°55.296 324.8 10.1 318 10.6
2004-05-03 06:47:15 51°14.254 2°55.28 323.5 10.2 317 10.1
2004-05-03 06:47:20 51°14.264 2°55.264 322.2 10.3 316 10.5
2004-05-03 06:47:25 51°14.274 2°55.248 320.9 10.4 314 9.9
2004-05-03 06:47:30 51°14.284 2°55.231 319.6 10.6 313 10.1
2004-05-03 06:47:35 51°14.294 2°55.213 317.9 10.8 312 10
2004-05-03 06:47:40 51°14.304 2°55.194 316.6 11 310 10.3
2004-05-03 06:47:44 51°14.312 2°55.179 315 11.4 309 10.2
2004-05-03 06:47:50 51°14.324 2°55.154 314.2 11.6 308 10.2
2004-05-03 06:47:55 51°14.334 2°55.133 313.2 12 307 9.9
2004-05-03 06:48:00 51°14.345 2°55.112 313.1 12.2 309 10.1
2004-05-03 06:48:05 51°14.355 2°55.091 314 12.4 310 9.6
2004-05-03 06:48:10 51°14.367 2°55.07 315.7 12.6 311 9.9
2004-05-03 06:48:15 51°14.379 2°55.049 317 12.7 311 10.1
2004-05-03 06:48:20 51°14.39 2°55.026 316.4 13 307 10.1
2004-05-03 06:48:25 51°14.4 2°55.001 313.7 13.2 303 10
2004-05-03 06:48:30 51°14.409 2°54.976 311.2 13.4 302 9.9
2004-05-03 06:48:34 51°14.417 2°54.956 309.9 13.6 300 9.8
2004-05-03 06:48:40 51°14.428 2°54.924 309.1 13.6 300 9.9
2004-05-03 06:48:45 51°14.437 2°54.897 308.4 13.7 298 9.8
2004-05-03 06:48:50 51°14.445 2°54.869 306 13.8 294 9.8
2004-05-03 06:48:55 51°14.45 2°54.84 300.2 13.8 289 9.6
2004-05-03 06:49:00 51°14.454 2°54.81 295.6 13.9 285 9.8
2004-05-03 06:49:05 51°14.456 2°54.779 289.1 14 276 9.7
2004-05-03 06:49:10 51°14.457 2°54.748 283.7 14 273 9.7
2004-05-03 06:49:14 51°14.457 2°54.723 279.3 14.1 269 9.7
2004-05-03 06:49:20 51°14.455 2°54.686 275.8 14.1 267 9.8
2004-05-03 06:49:25 51°14.453 2°54.654 272.1 14.2 263 9.7
2004-05-03 06:49:30 51°14.449 2°54.624 268.9 14.3 260 9.6
2004-05-03 06:49:34 51°14.445 2°54.599 264.8 14.4 256 9.6
2004-05-03 06:49:40 51°14.438 2°54.562 261.6 14.4 254 10.1
2004-05-03 06:49:45 51°14.432 2°54.532 259.3 14.3 251 9.6
2004-05-03 06:49:50 51°14.424 2°54.503 255.6 14.4 248 9.6
2004-05-03 06:49:54 51°14.417 2°54.48 252.1 14.4 246 9.3
2004-05-03 06:50:00 51°14.406 2°54.446 249.6 14.5 243 9.1
2004-05-03 06:50:05 51°14.397 2°54.418 247.5 14.4 242 8.8
2004-05-03 06:50:10 51°14.387 2°54.39 245.9 14.4 240 8.7
2004-05-03 06:50:14 51°14.379 2°54.368 245.4 14.3 241 8.6
2004-05-03 06:50:20 51°14.367 2°54.336 244.7 14.3 240 8.6
2004-05-03 06:50:25 51°14.357 2°54.308 244.2 14.4 239 8.5
2004-05-03 06:50:30 51°14.347 2°54.281 243.9 14.4 239 8.4
2004-05-03 06:50:35 51°14.337 2°54.254 243.7 14.4 240 8.3
2004-05-03 06:50:40 51°14.327 2°54.226 243.8 14.5 239 8.3
2004-05-03 06:50:45 51°14.317 2°54.198 244.4 14.5 240 8.3
2004-05-03 06:50:50 51°14.307 2°54.17 244.9 14.5 241 8.3
2004-05-03 06:50:55 51°14.298 2°54.142 246.3 14.5 242 8.3
2004-05-03 06:51:00 51°14.289 2°54.113 247.2 14.5 243 8.3
2004-05-03 06:51:05 51°14.28 2°54.084 248.3 14.5 244 8.2
2004-05-03 06:51:10 51°14.271 2°54.055 248.9 14.5 244 8.3
2004-05-03 06:51:14 51°14.264 2°54.032 249.8 14.5 245 8.2
2004-05-03 06:51:20 51°14.254 2°53.997 250.2 14.5 244 8.2
2004-05-03 06:51:25 51°14.246 2°53.968 250.6 14.5 245 8.2
2004-05-03 06:51:30 51°14.237 2°53.939 250.8 14.5 245 8.2
2004-05-03 06:51:35 51°14.228 2°53.91 250.4 14.6 244 8.3
2004-05-03 06:51:40 51°14.219 2°53.881 249.7 14.6 243 8.2
2004-05-03 06:51:45 51°14.209 2°53.853 248.2 14.6 241 8.3
2004-05-03 06:51:50 51°14.199 2°53.825 246 14.6 240 8.3
2004-05-03 06:51:56 51°14.186 2°53.792 244.5 14.6 239 8.3
2004-05-03 06:52:00 51°14.178 2°53.771 243.2 14.6 238 8.3
2004-05-03 06:52:05 51°14.166 2°53.743 242.4 14.6 237 8.3
2004-05-03 06:52:10 51°14.156 2°53.716 241.9 14.6 237 8.4
2004-05-03 06:52:15 51°14.144 2°53.689 241.6 14.7 236 8.3
2004-05-03 06:52:20 51°14.134 2°53.662 242 14.7 238 8.4
2004-05-03 06:52:25 51°14.123 2°53.634 242.4 14.7 238 8.4
2004-05-03 06:52:30 51°14.113 2°53.606 243.3 14.7 240 8.4
2004-05-03 06:52:35 51°14.103 2°53.577 245 14.7 242 8.4
2004-05-03 06:52:40 51°14.094 2°53.548 247 14.7 243 8.4
2004-05-03 06:52:45 51°14.085 2°53.519 248.5 14.7 245 8.5
2004-05-03 06:52:50 51°14.076 2°53.49 250.1 14.7 245 8.5
2004-05-03 06:52:55 51°14.068 2°53.46 250.9 14.7 246 8.6
2004-05-03 06:53:00 51°14.059 2°53.431 251.4 14.7 245 8.6
2004-05-03 06:53:05 51°14.051 2°53.402 250.8 14.7 244 8.6
2004-05-03 06:53:10 51°14.041 2°53.373 249.8 14.7 243 8.6
2004-05-03 06:53:14 51°14.033 2°53.35 248 14.8 241 8.6
2004-05-03 06:53:20 51°14.021 2°53.316 246.6 14.8 241 8.7
2004-05-03 06:53:25 51°14.011 2°53.288 245.5 14.8 239 8.8
2004-05-03 06:53:30 51°14 2°53.259 244.2 14.8 239 8.7
2004-05-03 06:53:34 51°13.992 2°53.237 243.9 14.8 238 8.8
2004-05-03 06:53:40 51°13.979 2°53.204 243.5 14.9 239 8.8
2004-05-03 06:53:45 51°13.968 2°53.175 243.6 14.9 239 8.8
2004-05-03 06:53:50 51°13.958 2°53.147 244.4 14.8 240 8.9
2004-05-03 06:53:54 51°13.95 2°53.124 245.2 14.9 241 8.9
2004-05-03 06:54:00 51°13.938 2°53.089 246.9 14.9 242 9
2004-05-03 06:54:05 51°13.929 2°53.06 248 14.9 243 9
2004-05-03 06:54:10 51°13.92 2°53.03 249.4 14.9 244 9.1
2004-05-03 06:54:14 51°13.913 2°53.006 250.1 14.9 244 9.1
2004-05-03 06:54:20 51°13.902 2°52.971 250.4 14.9 244 9.2
2004-05-03 06:54:25 51°13.893 2°52.941 249.7 14.9 244 9.2
2004-05-03 06:54:30 51°13.883 2°52.912 248.9 14.9 242 9.3
2004-05-03 06:54:35 51°13.873 2°52.883 247.6 14.9 241 9.3
2004-05-03 06:54:40 51°13.863 2°52.854 246.8 14.9 241 9.3
2004-05-03 06:54:45 51°13.852 2°52.826 245.9 15 239 9.3
2004-05-03 06:54:50 51°13.842 2°52.797 245.3 14.9 241 9.3
2004-05-03 06:54:54 51°13.834 2°52.774 245.2 15 239 9.3
2004-05-03 06:55:00 51°13.822 2°52.74 245.3 15 241 9.3
2004-05-03 06:55:05 51°13.812 2°52.711 245.9 15 242 9.4
2004-05-03 06:55:10 51°13.802 2°52.682 246.5 15 241 9.4
2004-05-03 06:55:14 51°13.794 2°52.658 247.3 15 243 9.4
2004-05-03 06:55:20 51°13.782 2°52.623 248.1 15 241 9.4
2004-05-03 06:55:25 51°13.773 2°52.593 248 15 243 9.4
2004-05-03 06:55:30 51°13.764 2°52.564 248.2 15 242 9.5
2004-05-03 06:55:34 51°13.756 2°52.541 248 15 243 9.4
2004-05-03 06:55:40 51°13.744 2°52.506 247.4 15 242 9.4
2004-05-03 06:55:45 51°13.734 2°52.477 247.1 15 241 9.5
2004-05-03 06:55:50 51°13.724 2°52.448 246.7 15 241 9.5
2004-05-03 06:55:54 51°13.716 2°52.425 246 15 240 9.5
2004-05-03 06:56:00 51°13.704 2°52.39 246.1 15.1 241 9.6
2004-05-03 06:56:05 51°13.694 2°52.361 246.4 15.1 241 9.6
2004-05-03 06:56:10 51°13.683 2°52.332 246.5 15 241 9.7
2004-05-03 06:56:14 51°13.675 2°52.308 246.5 15.1 241 9.6
2004-05-03 06:56:20 51°13.663 2°52.274 246.8 15 241 9.6
2004-05-03 06:56:25 51°13.654 2°52.244 247.1 15 242 9.6
2004-05-03 06:56:30 51°13.644 2°52.215 247.4 15.1 242 9.7
2004-05-03 06:56:34 51°13.636 2°52.191 247.6 15 242 9.7
2004-05-03 06:56:40 51°13.624 2°52.156 247.5 15.1 242 9.8
2004-05-03 06:56:45 51°13.614 2°52.127 247.5 15 241 9.7
2004-05-03 06:56:50 51°13.604 2°52.098 246.9 15 241 9.7
2004-05-03 06:56:56 51°13.592 2°52.063 246.5 15.1 240 9.7
2004-05-03 06:57:00 51°13.584 2°52.039 246.1 15.1 240 9.7
2004-05-03 06:57:05 51°13.574 2°52.01 246.1 15.1 241 9.7
2004-05-03 06:57:10 51°13.564 2°51.981 246.2 15.1 242 9.8
2004-05-03 06:57:14 51°13.556 2°51.958 246.9 15.1 241 9.8
2004-05-03 06:57:20 51°13.544 2°51.923 246.7 15.1 241 9.8
2004-05-03 06:57:25 51°13.534 2°51.893 247 15.1 242 9.8
2004-05-03 06:57:30 51°13.524 2°51.864 247.1 15.1 242 9.8
2004-05-03 06:57:34 51°13.516 2°51.84 247.3 15.1 242 9.7
2004-05-03 06:57:40 51°13.504 2°51.806 247.4 15 241 9.8
2004-05-03 06:57:45 51°13.494 2°51.776 247.2 15.1 241 9.8
2004-05-03 06:57:50 51°13.484 2°51.747 246.8 15.1 241 9.8
2004-05-03 06:57:55 51°13.474 2°51.718 246.7 15.1 241 9.8
2004-05-03 06:58:01 51°13.462 2°51.683 246.6 15.1 241 9.8
2004-05-03 06:58:05 51°13.454 2°51.66 246.4 15.1 241 9.8
2004-05-03 06:58:10 51°13.444 2°51.631 246.3 15.1 241 9.8
2004-05-03 06:58:14 51°13.436 2°51.607 246.9 15.1 241 9.8
2004-05-03 06:58:20 51°13.424 2°51.572 247.3 15.1 242 9.8
2004-05-03 06:58:25 51°13.415 2°51.543 247.8 15.1 243 9.8
2004-05-03 06:58:29 51°13.407 2°51.519 248.1 15.1 243 9.9
2004-05-03 06:58:34 51°13.398 2°51.489 248.6 15 243 9.9
2004-05-03 06:58:40 51°13.386 2°51.453 248.8 15.1 243 9.9
2004-05-03 06:58:45 51°13.377 2°51.424 248.9 15.1 243 9.9
2004-05-03 06:58:50 51°13.367 2°51.394 248.6 15.1 243 9.9
2004-05-03 06:58:54 51°13.359 2°51.371 247.9 15 242 9.9
2004-05-03 06:59:00 51°13.347 2°51.336 247.3 15 241 9.9
2004-05-03 06:59:05 51°13.337 2°51.307 246.4 15 241 10
2004-05-03 06:59:10 51°13.327 2°51.278 246.4 15 241 10
2004-05-03 06:59:14 51°13.319 2°51.255 246.3 15 241 10
2004-05-03 06:59:20 51°13.307 2°51.22 246.6 14.9 241 9.9
2004-05-03 06:59:25 51°13.297 2°51.191 246.7 14.9 242 10
2004-05-03 06:59:30 51°13.287 2°51.162 247 15 242 10.1
2004-05-03 06:59:34 51°13.28 2°51.139 247.5 14.9 242 10.1
2004-05-03 06:59:40 51°13.268 2°51.104 247.5 14.9 242 10.1
2004-05-03 06:59:45 51°13.259 2°51.075 247.6 14.9 242 10.1
2004-05-03 06:59:50 51°13.249 2°51.045 247.5 14.9 242 10.1
2004-05-03 06:59:54 51°13.241 2°51.022 247.1 14.9 241 10.2
2004-05-03 07:00:00 51°13.229 2°50.988 246.7 14.9 241 10.2
2004-05-03 07:00:05 51°13.219 2°50.959 246.6 14.9 241 10.2
2004-05-03 07:00:10 51°13.209 2°50.93 246.7 14.9 242 10.2
2004-05-03 07:00:13 51°13.203 2°50.913 246.8 14.9 242 10.2
2004-05-03 07:00:20 51°13.19 2°50.872 247.2 14.9 242 10.3
2004-05-03 07:00:25 51°13.18 2°50.843 247.5 14.9 242 10.3
2004-05-03 07:00:30 51°13.171 2°50.814 247.5 14.9 242 10.3
2004-05-03 07:00:36 51°13.159 2°50.779 247.2 14.9 241 10.3
2004-05-03 07:00:40 51°13.151 2°50.756 247.1 14.9 242 10.3
2004-05-03 07:00:45 51°13.141 2°50.727 246.7 15 241 10.3
2004-05-03 07:00:50 51°13.131 2°50.697 246.7 15 242 10.4
2004-05-03 07:00:55 51°13.122 2°50.668 247.2 15 242 10.4
2004-05-03 07:01:00 51°13.112 2°50.639 247.2 15 242 10.4
2004-05-03 07:01:05 51°13.102 2°50.61 247.1 15 242 10.4
2004-05-03 07:01:10 51°13.092 2°50.581 246.7 15 241 10.4
2004-05-03 07:01:15 51°13.082 2°50.552 246.7 15 242 10.4
2004-05-03 07:01:18 51°13.076 2°50.534 247.1 15 242 10.4
2004-05-03 07:01:25 51°13.063 2°50.493 247.1 15 242 10.4
2004-05-03 07:01:30 51°13.053 2°50.464 247.2 15 242 10.4
2004-05-03 07:01:34 51°13.045 2°50.44 247.1 15 242 10.5
2004-05-03 07:01:41 51°13.031 2°50.399 246.7 15.1 242 10.5
2004-05-03 07:01:45 51°13.023 2°50.376 246.7 15.1 242 10.5
2004-05-03 07:01:50 51°13.014 2°50.346 246.8 15.1 242 10.5
2004-05-03 07:01:54 51°13.006 2°50.323 247.3 15 243 10.5
2004-05-03 07:02:00 51°12.994 2°50.287 247.4 15.1 243 10.6
2004-05-03 07:02:05 51°12.985 2°50.258 247.5 15 242 10.6
2004-05-03 07:02:10 51°12.975 2°50.229 247.5 15.1 243 10.6
2004-05-03 07:02:14 51°12.967 2°50.205 247.5 15.1 243 10.6
2004-05-03 07:02:20 51°12.956 2°50.169 247.5 15.1 242 10.6
2004-05-03 07:02:25 51°12.946 2°50.14 247.4 15.1 242 10.6
2004-05-03 07:02:30 51°12.936 2°50.111 247.3 15.1 242 10.6
2004-05-03 07:02:34 51°12.928 2°50.087 247.1 15.1 242 10.6
2004-05-03 07:02:40 51°12.916 2°50.052 246.9 15.1 242 10.6
2004-05-03 07:02:45 51°12.907 2°50.022 246.9 15.1 242 10.6
2004-05-03 07:02:50 51°12.897 2°49.993 247.2 15.1 243 10.7
2004-05-03 07:02:54 51°12.889 2°49.969 247.4 15.1 242 10.6
2004-05-03 07:03:00 51°12.878 2°49.934 247.5 15 242 10.7
2004-05-03 07:03:05 51°12.868 2°49.904 247.4 15.1 242 10.7
2004-05-03 07:03:10 51°12.858 2°49.875 247.4 15.1 243 10.7
2004-05-03 07:03:15 51°12.849 2°49.845 247.2 15.1 242 10.7
2004-05-03 07:03:20 51°12.839 2°49.816 246.7 15.1 243 10.8
2004-05-03 07:03:25 51°12.829 2°49.787 247.3 15 242 10.8
2004-05-03 07:03:30 51°12.819 2°49.757 246.8 15.1 242 10.8
2004-05-03 07:03:36 51°12.808 2°49.722 247.1 15.1 242 10.8
2004-05-03 07:03:40 51°12.8 2°49.698 247.2 15.1 242 10.8
2004-05-03 07:03:45 51°12.79 2°49.669 247.1 15.1 242 10.8
2004-05-03 07:03:50 51°12.78 2°49.639 246.8 15.1 242 10.8
2004-05-03 07:03:54 51°12.772 2°49.615 247.2 15.1 243 10.8
2004-05-03 07:04:01 51°12.759 2°49.574 247.6 15.1 243 10.8
2004-05-03 07:04:05 51°12.752 2°49.55 247.9 15.1 243 10.8
2004-05-03 07:04:10 51°12.742 2°49.521 247.7 15.1 243 10.9
2004-05-03 07:04:15 51°12.732 2°49.491 247.5 15.1 243 10.9
2004-05-03 07:04:20 51°12.723 2°49.461 247.2 15.1 242 10.9
2004-05-03 07:04:25 51°12.713 2°49.432 246.9 15.1 243 10.9
2004-05-03 07:04:30 51°12.703 2°49.402 246.9 15.1 242 10.9
2004-05-03 07:04:34 51°12.695 2°49.379 246.9 15.1 243 10.9
2004-05-03 07:04:40 51°12.683 2°49.343 247.2 15.1 242 10.9
2004-05-03 07:04:45 51°12.674 2°49.314 247.2 15.1 242 11
2004-05-03 07:04:50 51°12.664 2°49.284 247.2 15.1 242 11
2004-05-03 07:04:55 51°12.654 2°49.255 247.1 15.1 242 11
2004-05-03 07:05:00 51°12.644 2°49.225 246.7 15.1 242 11
2004-05-03 07:05:05 51°12.634 2°49.196 247.1 15.1 242 11
2004-05-03 07:05:10 51°12.625 2°49.166 247.1 15.1 243 11
2004-05-03 07:05:14 51°12.617 2°49.142 247.5 15.1 243 11.1
2004-05-03 07:05:20 51°12.606 2°49.107 247.6 15.1 243 11.1
2004-05-03 07:05:25 51°12.596 2°49.077 247.6 15.1 243 11.1
2004-05-03 07:05:30 51°12.586 2°49.047 247.5 15.1 243 11.1
2004-05-03 07:05:36 51°12.575 2°49.012 247.5 15.1 242 11.1
2004-05-03 07:05:40 51°12.567 2°48.988 247.2 15.1 243 11.1
2004-05-03 07:05:45 51°12.557 2°48.959 247.2 15.1 242 11.1
2004-05-03 07:05:50 51°12.547 2°48.929 247 15.1 243 11.2
2004-05-03 07:05:56 51°12.536 2°48.894 246.9 15.1 242 11.1
2004-05-03 07:06:00 51°12.528 2°48.87 246.9 15.1 243 11.2
2004-05-03 07:06:05 51°12.518 2°48.84 247.2 15.1 243 11.2
2004-05-03 07:06:10 51°12.509 2°48.81 247.3 15.1 243 11.2
2004-05-03 07:06:16 51°12.497 2°48.775 247.5 15.1 242 11.2
2004-05-03 07:06:20 51°12.489 2°48.751 247.5 15.1 243 11.3
2004-05-03 07:06:25 51°12.48 2°48.722 247.3 15.1 242 11.3
2004-05-03 07:06:30 51°12.47 2°48.692 247 15.1 243 11.3
2004-05-03 07:06:36 51°12.458 2°48.656 246.8 15.1 242 11.3
2004-05-03 07:06:40 51°12.451 2°48.633 246.7 15.2 243 11.2
2004-05-03 07:06:45 51°12.441 2°48.603 247.3 15.1 243 11.3
2004-05-03 07:06:50 51°12.431 2°48.573 247.5 15.1 243 11.3
2004-05-03 07:06:56 51°12.419 2°48.538 246.6 15.1 241 11.3
2004-05-03 07:07:00 51°12.411 2°48.515 245.6 15.1 241 11.3
2004-05-03 07:07:05 51°12.4 2°48.486 244.7 15.1 240 11.4
2004-05-03 07:07:10 51°12.389 2°48.457 244.2 15.1 239 11.4
2004-05-03 07:07:15 51°12.379 2°48.428 243.7 15.1 240 11.4
2004-05-03 07:07:20 51°12.368 2°48.399 243.8 15.2 239 11.3
2004-05-03 07:07:25 51°12.358 2°48.37 243.8 15.2 240 11.4
2004-05-03 07:07:30 51°12.347 2°48.342 244.1 15.1 240 11.4
2004-05-03 07:07:36 51°12.334 2°48.307 244.1 15.1 240 11.4
2004-05-03 07:07:40 51°12.326 2°48.284 243.8 15.1 240 11.4
2004-05-03 07:07:45 51°12.315 2°48.255 243.7 15.1 240 11.4
2004-05-03 07:07:50 51°12.305 2°48.226 243.9 15.1 240 11.4
2004-05-03 07:07:54 51°12.296 2°48.203 244 15.1 240 11.4
2004-05-03 07:08:01 51°12.281 2°48.163 244.2 15.1 239 11.5
2004-05-03 07:08:05 51°12.273 2°48.14 243.8 15.1 239 11.4
2004-05-03 07:08:10 51°12.262 2°48.111 243.9 15.1 240 11.5
2004-05-03 07:08:15 51°12.252 2°48.082 243.8 15.1 239 11.5
2004-05-03 07:08:20 51°12.241 2°48.054 243.4 15.1 239 11.5
2004-05-03 07:08:25 51°12.231 2°48.025 243.6 15.1 240 11.5
2004-05-03 07:08:30 51°12.22 2°47.996 243.8 15.1 240 11.6
2004-05-03 07:08:34 51°12.212 2°47.973 244 15.1 240 11.4
2004-05-03 07:08:40 51°12.199 2°47.939 244.1 15.1 240 11.6
2004-05-03 07:08:45 51°12.189 2°47.91 244.1 15.1 240 11.5
2004-05-03 07:08:50 51°12.178 2°47.881 243.8 15.1 239 11.6
2004-05-03 07:08:54 51°12.169 2°47.858 243.8 15 240 11.5
2004-05-03 07:09:00 51°12.157 2°47.824 243.6 15.1 240 11.4
2004-05-03 07:09:05 51°12.146 2°47.796 244.1 15 239 11.4
2004-05-03 07:09:10 51°12.135 2°47.767 244 15.1 240 11.5
2004-05-03 07:09:15 51°12.125 2°47.738 244.4 15 240 11.4
2004-05-03 07:09:20 51°12.115 2°47.709 244.5 15 240 11.4
2004-05-03 07:09:25 51°12.104 2°47.68 244.5 15 240 11.4
2004-05-03 07:09:30 51°12.094 2°47.652 244.4 15 240 11.5
2004-05-03 07:09:34 51°12.086 2°47.629 244.3 15.1 240 11.5
2004-05-03 07:09:40 51°12.073 2°47.594 244.1 15 240 11.5
2004-05-03 07:09:45 51°12.062 2°47.566 243.8 15 240 11.3
2004-05-03 07:09:50 51°12.052 2°47.537 243.8 15.1 240 11.4
2004-05-03 07:09:54 51°12.043 2°47.514 244.4 15 240 11.4
2004-05-03 07:10:00 51°12.031 2°47.48 244.4 15 240 11.4
2004-05-03 07:10:05 51°12.02 2°47.451 244.1 15 239 11.5
2004-05-03 07:10:10 51°12.01 2°47.422 243.7 15.1 240 11.4
2004-05-03 07:10:15 51°11.999 2°47.394 243.8 15.1 240 11.4
2004-05-03 07:10:20 51°11.989 2°47.365 244.4 15 240 11.3
2004-05-03 07:10:25 51°11.978 2°47.336 244 15.1 240 11.4
2004-05-03 07:10:30 51°11.968 2°47.307 244.5 15 240 11.3
2004-05-03 07:10:36 51°11.956 2°47.273 244.5 15 240 11.3
2004-05-03 07:10:40 51°11.947 2°47.25 244.2 15 240 11.3
2004-05-03 07:10:45 51°11.937 2°47.221 243.8 15.1 240 11.3
2004-05-03 07:10:50 51°11.926 2°47.193 244.1 15 240 11.3
2004-05-03 07:10:56 51°11.914 2°47.158 244.2 15 240 11.3
2004-05-03 07:11:00 51°11.906 2°47.135 244.2 15 240 11.3
2004-05-03 07:11:05 51°11.895 2°47.106 244.2 15 240 11.2
2004-05-03 07:11:10 51°11.885 2°47.078 244.1 15.1 240 11.2
2004-05-03 07:11:15 51°11.874 2°47.049 244.1 15 240 11.2
2004-05-03 07:11:20 51°11.864 2°47.02 244.4 15 240 11.2
2004-05-03 07:11:25 51°11.854 2°46.991 244.4 15.1 240 11.2
2004-05-03 07:11:29 51°11.845 2°46.968 244.4 15.1 240 11.1
2004-05-03 07:11:36 51°11.831 2°46.928 244.5 15.1 240 11.2
2004-05-03 07:11:40 51°11.822 2°46.905 244.3 15 240 11.2
2004-05-03 07:11:45 51°11.811 2°46.876 243.8 15 239 11.2
2004-05-03 07:11:50 51°11.801 2°46.848 243.5 15.1 240 11.2
2004-05-03 07:11:56 51°11.788 2°46.813 244 15.1 240 11.2
2004-05-03 07:12:00 51°11.78 2°46.79 244.4 15 240 11.1
2004-05-03 07:12:05 51°11.769 2°46.762 244.5 15 240 11.1
2004-05-03 07:12:10 51°11.759 2°46.733 244.1 15 240 11.1
2004-05-03 07:12:16 51°11.746 2°46.699 244 15 240 11.1
2004-05-03 07:12:20 51°11.738 2°46.676 244 15 240 11.1
2004-05-03 07:12:25 51°11.728 2°46.647 244.2 14.9 240 11
2004-05-03 07:12:30 51°11.717 2°46.619 244.4 14.9 240 11.1
2004-05-03 07:12:34 51°11.709 2°46.596 244.4 14.9 240 11.1
2004-05-03 07:12:41 51°11.694 2°46.556 244.5 14.9 240 11
2004-05-03 07:12:45 51°11.686 2°46.533 244.6 14.9 240 11
2004-05-03 07:12:50 51°11.676 2°46.505 244.5 14.9 240 11
2004-05-03 07:12:55 51°11.666 2°46.476 244.1 14.9 240 11.1
2004-05-03 07:13:00 51°11.655 2°46.448 244.4 14.9 239 11
2004-05-03 07:13:05 51°11.645 2°46.42 243.7 14.9 240 11
2004-05-03 07:13:10 51°11.634 2°46.391 244.1 14.9 240 11
2004-05-03 07:13:14 51°11.626 2°46.368 244.4 14.9 241 11
2004-05-03 07:13:20 51°11.613 2°46.335 244.4 14.9 239 11
2004-05-03 07:13:25 51°11.603 2°46.306 244.1 14.9 240 10.9
2004-05-03 07:13:30 51°11.592 2°46.278 244 14.9 239 11
2004-05-03 07:13:35 51°11.582 2°46.25 243.8 14.9 240 10.9
2004-05-03 07:13:40 51°11.571 2°46.222 243.6 14.9 239 10.9
2004-05-03 07:13:45 51°11.561 2°46.193 243.3 14.9 239 10.9
2004-05-03 07:13:50 51°11.55 2°46.165 243.7 15 240 10.8
2004-05-03 07:13:55 51°11.54 2°46.137 244.2 14.9 240 10.8
2004-05-03 07:14:00 51°11.53 2°46.108 244.2 14.9 240 10.8
2004-05-03 07:14:05 51°11.519 2°46.08 244.2 15 240 10.7
2004-05-03 07:14:10 51°11.509 2°46.051 244.8 14.9 241 10.7
2004-05-03 07:14:15 51°11.499 2°46.023 244.8 14.9 240 10.6
2004-05-03 07:14:20 51°11.488 2°45.994 244.5 14.9 240 10.6
2004-05-03 07:14:25 51°11.478 2°45.966 244.3 14.9 240 10.6
2004-05-03 07:14:30 51°11.468 2°45.937 244.1 14.9 240 10.5
2004-05-03 07:14:33 51°11.461 2°45.92 244 14.9 240 10.5
2004-05-03 07:14:40 51°11.447 2°45.88 244.3 14.9 240 10.4
2004-05-03 07:14:45 51°11.436 2°45.852 244 15 240 10.5
2004-05-03 07:14:50 51°11.426 2°45.823 244.1 14.9 240 10.4
2004-05-03 07:14:55 51°11.416 2°45.794 244.6 14.9 241 10.4
2004-05-03 07:15:01 51°11.404 2°45.76 244.7 14.9 240 10.4
2004-05-03 07:15:05 51°11.396 2°45.737 245 14.9 241 10.3
2004-05-03 07:15:10 51°11.385 2°45.709 245.1 14.9 240 10.3
2004-05-03 07:15:16 51°11.373 2°45.675 244.9 14.9 240 10.3
2004-05-03 07:15:20 51°11.364 2°45.652 244.4 14.9 240 10.3
2004-05-03 07:15:25 51°11.354 2°45.623 244.3 14.9 240 10.2
2004-05-03 07:15:30 51°11.344 2°45.595 243.9 14.9 240 10.2
2004-05-03 07:15:36 51°11.331 2°45.561 244.1 14.8 240 10.2
2004-05-03 07:15:40 51°11.323 2°45.538 244.2 14.9 240 10.2
2004-05-03 07:15:45 51°11.313 2°45.51 244 15 240 10.1
2004-05-03 07:15:50 51°11.303 2°45.481 244.5 14.9 240 10.1
2004-05-03 07:15:54 51°11.294 2°45.459 244.5 14.8 240 10
2004-05-03 07:16:00 51°11.282 2°45.425 244.4 14.9 240 10
2004-05-03 07:16:05 51°11.272 2°45.396 244.5 14.9 240 10
2004-05-03 07:16:10 51°11.262 2°45.368 244.7 14.9 240 9.9
2004-05-03 07:16:14 51°11.253 2°45.345 244.6 14.9 240 9.9
2004-05-03 07:16:20 51°11.241 2°45.31 244.5 14.9 240 9.9
2004-05-03 07:16:25 51°11.232 2°45.281 245.5 14.9 242 9.9
2004-05-03 07:16:30 51°11.222 2°45.252 246.7 14.9 243 9.8
2004-05-03 07:16:36 51°11.212 2°45.216 247.8 14.9 244 9.7
2004-05-03 07:16:40 51°11.205 2°45.193 249.3 15 245 9.8
2004-05-03 07:16:45 51°11.196 2°45.162 250 14.9 246 9.8
2004-05-03 07:16:50 51°11.188 2°45.133 250.8 14.9 246 9.8
2004-05-03 07:16:54 51°11.181 2°45.108 250.9 14.9 246 9.8
2004-05-03 07:17:00 51°11.171 2°45.072 250.9 14.9 246 9.8
2004-05-03 07:17:05 51°11.163 2°45.042 250.8 14.9 246 9.7
2004-05-03 07:17:10 51°11.154 2°45.013 250.6 14.9 245 9.8
2004-05-03 07:17:15 51°11.145 2°44.983 250 14.9 245 9.8
2004-05-03 07:17:21 51°11.135 2°44.947 249.7 14.9 245 9.8
2004-05-03 07:17:25 51°11.127 2°44.923 249.6 15 244 9.7
2004-05-03 07:17:30 51°11.118 2°44.893 249.2 14.9 245 9.7
2004-05-03 07:17:36 51°11.108 2°44.857 249.1 14.9 244 9.7
2004-05-03 07:17:40 51°11.101 2°44.834 248.9 14.9 245 9.7
2004-05-03 07:17:45 51°11.092 2°44.804 249.4 14.9 245 9.7
2004-05-03 07:17:50 51°11.084 2°44.774 249.8 14.9 246 9.6
2004-05-03 07:17:56 51°11.073 2°44.738 250.2 14.9 246 9.6
2004-05-03 07:18:00 51°11.067 2°44.714 250.4 14.9 246 9.6
2004-05-03 07:18:05 51°11.058 2°44.684 250.4 14.9 246 9.6
2004-05-03 07:18:10 51°11.049 2°44.654 250.4 14.9 245 9.6
2004-05-03 07:18:16 51°11.039 2°44.619 249.9 14.9 245 9.6
2004-05-03 07:18:20 51°11.032 2°44.595 249.4 14.9 244 9.6
2004-05-03 07:18:25 51°11.023 2°44.565 249.1 14.9 244 9.5
2004-05-03 07:18:30 51°11.014 2°44.535 248.8 14.9 245 9.6
2004-05-03 07:18:35 51°11.005 2°44.506 249 14.9 244 9.6
2004-05-03 07:18:40 51°10.996 2°44.476 248.9 14.9 245 9.5
2004-05-03 07:18:45 51°10.987 2°44.447 249 14.9 245 9.5
2004-05-03 07:18:50 51°10.978 2°44.417 249.2 14.9 245 9.5
2004-05-03 07:18:53 51°10.973 2°44.399 249.4 14.9 245 9.5
2004-05-03 07:19:00 51°10.961 2°44.357 249.7 14.9 246 9.5
2004-05-03 07:19:05 51°10.953 2°44.327 250.1 14.9 246 9.4
2004-05-03 07:19:10 51°10.944 2°44.297 250.5 14.9 246 9.4
2004-05-03 07:19:15 51°10.936 2°44.267 250.5 14.9 246 9.4
2004-05-03 07:19:20 51°10.928 2°44.238 250.7 14.8 246 9.4
2004-05-03 07:19:25 51°10.919 2°44.208 250.5 14.8 246 9.4
2004-05-03 07:19:30 51°10.911 2°44.178 250.3 14.8 245 9.4
2004-05-03 07:19:35 51°10.902 2°44.148 249.9 14.8 245 9.3
2004-05-03 07:19:40 51°10.893 2°44.119 249.1 14.8 245 9.3
2004-05-03 07:19:45 51°10.884 2°44.09 248.9 14.8 244 9.4
2004-05-03 07:19:50 51°10.875 2°44.06 248.8 14.8 245 9.3
2004-05-03 07:19:54 51°10.868 2°44.036 248.9 14.8 245 9.3
2004-05-03 07:20:00 51°10.857 2°44.001 249.3 14.8 245 9.3
2004-05-03 07:20:05 51°10.849 2°43.971 249.5 14.8 246 9.3
2004-05-03 07:20:10 51°10.841 2°43.941 250.1 14.8 246 9.2
2004-05-03 07:20:14 51°10.834 2°43.917 250.8 14.7 247 9.2
2004-05-03 07:20:20 51°10.824 2°43.881 251.4 14.7 247 9.2
2004-05-03 07:20:25 51°10.816 2°43.851 251.5 14.8 247 9.2
2004-05-03 07:20:30 51°10.808 2°43.822 251.5 14.7 246 9.2
2004-05-03 07:20:34 51°10.801 2°43.798 250.9 14.7 246 9.1
2004-05-03 07:20:40 51°10.791 2°43.763 250 14.8 245 9.1
2004-05-03 07:20:45 51°10.782 2°43.733 249.2 14.8 244 9.1
2004-05-03 07:20:50 51°10.773 2°43.704 248.7 14.8 244 9.1
2004-05-03 07:20:56 51°10.762 2°43.669 248.4 14.8 244 9.1
2004-05-03 07:21:00 51°10.755 2°43.646 248.3 14.7 244 9.1
2004-05-03 07:21:05 51°10.746 2°43.616 248.3 14.8 244 9
2004-05-03 07:21:10 51°10.737 2°43.587 248.9 14.8 245 9
2004-05-03 07:21:14 51°10.731 2°43.563 249.7 14.7 246 9
2004-05-03 07:21:21 51°10.719 2°43.521 250.4 14.7 247 9
2004-05-03 07:21:25 51°10.713 2°43.497 251.1 14.7 246 9
2004-05-03 07:21:29 51°10.706 2°43.474 251.2 14.7 246 9
2004-05-03 07:21:34 51°10.698 2°43.444 251.1 14.8 246 9
2004-05-03 07:21:40 51°10.687 2°43.408 251 14.8 246 8.9
2004-05-03 07:21:45 51°10.679 2°43.379 250.1 14.7 245 8.9
2004-05-03 07:21:50 51°10.669 2°43.35 249.3 14.7 244 8.9
2004-05-03 07:21:55 51°10.66 2°43.32 248.7 14.7 244 8.9
2004-05-03 07:22:00 51°10.651 2°43.292 247.6 14.8 242 8.9
2004-05-03 07:22:05 51°10.642 2°43.262 247.5 14.8 243 8.8
2004-05-03 07:22:10 51°10.632 2°43.233 247.5 14.8 243 8.9
2004-05-03 07:22:14 51°10.625 2°43.21 247.5 14.7 244 8.8
2004-05-03 07:22:21 51°10.613 2°43.169 248 14.7 245 8.8
2004-05-03 07:22:25 51°10.605 2°43.146 248.6 14.7 244 8.8
2004-05-03 07:22:30 51°10.597 2°43.116 249.6 14.7 246 8.8
2004-05-03 07:22:34 51°10.591 2°43.092 250.5 14.7 246 8.8
2004-05-03 07:22:40 51°10.581 2°43.056 251.2 14.7 247 8.7
2004-05-03 07:22:45 51°10.573 2°43.026 251.8 14.7 247 8.7
2004-05-03 07:22:50 51°10.565 2°42.997 251.8 14.7 247 8.8
2004-05-03 07:22:56 51°10.555 2°42.961 251.8 14.7 247 8.7
2004-05-03 07:23:00 51°10.549 2°42.937 251.3 14.7 246 8.7
2004-05-03 07:23:05 51°10.54 2°42.908 250.6 14.7 245 8.7
2004-05-03 07:23:09 51°10.533 2°42.884 249.6 14.7 244 8.7
2004-05-03 07:23:15 51°10.522 2°42.85 248.4 14.7 243 8.7
2004-05-03 07:23:20 51°10.513 2°42.821 247.8 14.7 243 8.7
2004-05-03 07:23:25 51°10.503 2°42.792 247.5 14.6 243 8.6
2004-05-03 07:23:30 51°10.494 2°42.763 247.1 14.7 243 8.6
2004-05-03 07:23:36 51°10.483 2°42.728 247 14.7 243 8.6
2004-05-03 07:23:40 51°10.476 2°42.705 247.7 14.7 244 8.6
2004-05-03 07:23:45 51°10.467 2°42.676 248.2 14.7 245 8.6
2004-05-03 07:23:50 51°10.459 2°42.646 249 14.7 245 8.6
2004-05-03 07:23:56 51°10.449 2°42.611 250.2 14.6 246 8.6
2004-05-03 07:24:00 51°10.442 2°42.587 250.8 14.7 246 8.6
2004-05-03 07:24:05 51°10.434 2°42.558 251.4 14.6 247 8.6
2004-05-03 07:24:10 51°10.427 2°42.528 251.9 14.6 247 8.5
2004-05-03 07:24:16 51°10.417 2°42.492 251.9 14.7 247 8.6
2004-05-03 07:24:20 51°10.41 2°42.468 251.8 14.7 246 8.6
2004-05-03 07:24:25 51°10.402 2°42.439 250.5 14.7 245 8.6
2004-05-03 07:24:30 51°10.393 2°42.41 249.6 14.7 244 8.6
2004-05-03 07:24:35 51°10.384 2°42.381 248.4 14.6 243 8.5
2004-05-03 07:24:40 51°10.374 2°42.352 247.3 14.7 243 8.6
2004-05-03 07:24:45 51°10.365 2°42.324 247.3 14.7 243 8.5
2004-05-03 07:24:50 51°10.356 2°42.295 247.4 14.7 243 8.5
2004-05-03 07:24:55 51°10.347 2°42.266 247.5 14.6 244 8.5
2004-05-03 07:25:00 51°10.338 2°42.237 248 14.6 244 8.6
2004-05-03 07:25:05 51°10.33 2°42.207 248.9 14.7 245 8.5
2004-05-03 07:25:10 51°10.322 2°42.177 249.7 14.7 245 8.5
2004-05-03 07:25:16 51°10.311 2°42.142 250.8 14.6 246 8.5
2004-05-03 07:25:20 51°10.305 2°42.118 250.8 14.6 247 8.5
2004-05-03 07:25:25 51°10.297 2°42.089 251.6 14.6 247 8.5
2004-05-03 07:25:30 51°10.289 2°42.059 251.7 14.6 247 8.5
2004-05-03 07:25:35 51°10.281 2°42.03 251.1 14.6 246 8.5
2004-05-03 07:25:40 51°10.272 2°42 250.3 14.6 244 8.5
2004-05-03 07:25:45 51°10.263 2°41.971 248.9 14.6 244 8.5
2004-05-03 07:25:50 51°10.254 2°41.943 248 14.6 243 8.5
2004-05-03 07:25:56 51°10.242 2°41.909 246.8 14.6 242 8.5
2004-05-03 07:26:00 51°10.235 2°41.886 246.2 14.6 242 8.6
2004-05-03 07:26:05 51°10.225 2°41.858 246 14.6 241 8.6
2004-05-03 07:26:10 51°10.216 2°41.829 245.7 14.6 242 8.6
2004-05-03 07:26:14 51°10.208 2°41.806 245.9 14.6 242 8.5
2004-05-03 07:26:20 51°10.197 2°41.772 246.3 14.6 244 8.5
2004-05-03 07:26:25 51°10.189 2°41.742 248 14.6 245 8.5
2004-05-03 07:26:30 51°10.181 2°41.713 249.7 14.6 247 8.5
2004-05-03 07:26:36 51°10.172 2°41.677 251.2 14.6 247 8.4
2004-05-03 07:26:40 51°10.166 2°41.653 252.6 14.5 249 8.5
2004-05-03 07:26:45 51°10.159 2°41.624 253.6 14.5 249 8.6
2004-05-03 07:26:50 51°10.152 2°41.594 253.8 14.4 249 8.5
2004-05-03 07:26:54 51°10.145 2°41.57 253.1 14.5 248 8.5
2004-05-03 07:27:01 51°10.134 2°41.528 252.5 14.5 247 8.6
2004-05-03 07:27:05 51°10.128 2°41.505 251.1 14.5 245 8.6
2004-05-03 07:27:10 51°10.119 2°41.476 249.6 14.5 245 8.6
2004-05-03 07:27:15 51°10.11 2°41.448 248.2 14.5 243 8.6
2004-05-03 07:27:20 51°10.1 2°41.42 246.9 14.5 242 8.6
2004-05-03 07:27:25 51°10.091 2°41.391 246 14.5 242 8.6
2004-05-03 07:27:29 51°10.083 2°41.368 246 14.6 243 8.6
2004-05-03 07:27:36 51°10.071 2°41.328 246.6 14.6 244 8.6
2004-05-03 07:27:40 51°10.064 2°41.305 248 14.6 245 8.6
2004-05-03 07:27:45 51°10.056 2°41.276 249.3 14.5 246 8.6
2004-05-03 07:27:50 51°10.048 2°41.246 250.3 14.5 247 8.6
2004-05-03 07:27:54 51°10.042 2°41.222 251.6 14.5 248 8.6
2004-05-03 07:28:00 51°10.033 2°41.187 252.1 14.6 248 8.6
2004-05-03 07:28:05 51°10.025 2°41.157 252.5 14.5 248 8.6
2004-05-03 07:28:10 51°10.018 2°41.127 252.5 14.5 248 8.7
2004-05-03 07:28:15 51°10.01 2°41.098 251.9 14.5 246 8.7
2004-05-03 07:28:20 51°10.001 2°41.069 250.7 14.5 245 8.7
2004-05-03 07:28:25 51°9.992 2°41.04 249.3 14.5 243 8.7
2004-05-03 07:28:30 51°9.983 2°41.011 247.6 14.6 243 8.7
2004-05-03 07:28:34 51°9.975 2°40.989 246.5 14.6 242 8.7
2004-05-03 07:28:40 51°9.964 2°40.954 246.4 14.5 242 8.7
2004-05-03 07:28:45 51°9.955 2°40.926 246.2 14.5 243 8.7
2004-05-03 07:28:50 51°9.946 2°40.898 246.2 14.5 243 8.7
2004-05-03 07:28:56 51°9.935 2°40.863 246.4 14.5 243 8.7
2004-05-03 07:29:00 51°9.928 2°40.84 247.3 14.6 244 8.7
2004-05-03 07:29:05 51°9.921 2°40.81 249.2 14.6 248 8.7
2004-05-03 07:29:10 51°9.914 2°40.779 251.7 14.5 250 8.7
2004-05-03 07:29:15 51°9.907 2°40.749 254.4 14.5 252 8.8
2004-05-03 07:29:20 51°9.902 2°40.719 256.1 14.4 253 8.8
2004-05-03 07:29:25 51°9.896 2°40.688 257.6 14.5 254 8.8
2004-05-03 07:29:30 51°9.89 2°40.657 258.1 14.5 254 8.9
2004-05-03 07:29:36 51°9.883 2°40.62 258.3 14.5 254 8.9
2004-05-03 07:29:40 51°9.879 2°40.596 258 14.5 253 8.9
2004-05-03 07:29:45 51°9.872 2°40.566 257.4 14.5 252 8.9
2004-05-03 07:29:50 51°9.866 2°40.536 256.1 14.5 251 8.9
2004-05-03 07:29:55 51°9.859 2°40.505 254.9 14.5 250 8.9
2004-05-03 07:30:00 51°9.852 2°40.475 254.2 14.5 250 8.9
2004-05-03 07:30:05 51°9.844 2°40.445 253.7 14.5 249 8.9
2004-05-03 07:30:10 51°9.837 2°40.415 253.5 14.5 250 8.9
2004-05-03 07:30:15 51°9.831 2°40.385 253.7 14.5 250 9
2004-05-03 07:30:20 51°9.824 2°40.355 254.4 14.5 251 9
2004-05-03 07:30:25 51°9.818 2°40.324 255.2 14.6 252 9
2004-05-03 07:30:30 51°9.811 2°40.293 256.1 14.6 252 9
2004-05-03 07:30:34 51°9.807 2°40.269 256.9 14.5 253 9
2004-05-03 07:30:40 51°9.8 2°40.232 257 14.5 253 9.1
2004-05-03 07:30:45 51°9.793 2°40.202 257.1 14.5 252 9.1
2004-05-03 07:30:50 51°9.787 2°40.171 256.7 14.5 252 9
2004-05-03 07:30:55 51°9.78 2°40.141 255.8 14.5 251 9.1
2004-05-03 07:31:00 51°9.774 2°40.11 255.1 14.6 251 9.1
2004-05-03 07:31:05 51°9.767 2°40.08 254.4 14.6 250 9.2
2004-05-03 07:31:10 51°9.759 2°40.05 253.9 14.5 250 9.2
2004-05-03 07:31:16 51°9.751 2°40.014 253.6 14.5 249 9.2
2004-05-03 07:31:20 51°9.745 2°39.99 253.6 14.6 250 9.1
2004-05-03 07:31:25 51°9.739 2°39.96 254.4 14.6 251 9.1
2004-05-03 07:31:30 51°9.732 2°39.93 255 14.5 251 9.2
2004-05-03 07:31:35 51°9.726 2°39.899 256.1 14.5 252 9.2
2004-05-03 07:31:40 51°9.72 2°39.869 256.2 14.5 253 9.2
2004-05-03 07:31:45 51°9.714 2°39.838 256.7 14.5 252 9.2
2004-05-03 07:31:50 51°9.708 2°39.808 256.8 14.5 252 9.2
2004-05-03 07:31:56 51°9.701 2°39.771 256.6 14.5 252 9.3
2004-05-03 07:32:00 51°9.695 2°39.747 256.4 14.6 251 9.3
2004-05-03 07:32:05 51°9.689 2°39.717 255.7 14.5 250 9.2
2004-05-03 07:32:10 51°9.682 2°39.687 254.4 14.5 250 9.3
2004-05-03 07:32:15 51°9.675 2°39.657 254.3 14.5 250 9.3
2004-05-03 07:32:20 51°9.667 2°39.627 253.6 14.5 250 9.3
2004-05-03 07:32:26 51°9.659 2°39.591 253.6 14.5 249 9.3
2004-05-03 07:32:30 51°9.654 2°39.567 253.8 14.5 250 9.3
2004-05-03 07:32:35 51°9.647 2°39.537 254.5 14.5 251 9.4
2004-05-03 07:32:40 51°9.641 2°39.506 255 14.5 252 9.4
2004-05-03 07:32:45 51°9.634 2°39.476 255.4 14.5 252 9.4
2004-05-03 07:32:50 51°9.628 2°39.445 255.9 14.5 252 9.4
2004-05-03 07:32:54 51°9.623 2°39.421 256.6 14.5 252 9.4
2004-05-03 07:33:00 51°9.616 2°39.384 256.6 14.5 253 9.4
2004-05-03 07:33:05 51°9.61 2°39.354 256.7 14.5 252 9.5
2004-05-03 07:33:09 51°9.605 2°39.329 256.2 14.5 252 9.5
2004-05-03 07:33:14 51°9.598 2°39.299 255.4 14.5 251 9.5
2004-05-03 07:33:20 51°9.59 2°39.263 254.7 14.5 250 9.5
2004-05-03 07:33:25 51°9.583 2°39.233 254 14.5 250 9.5
2004-05-03 07:33:30 51°9.576 2°39.203 253.8 14.5 250 9.5
2004-05-03 07:33:36 51°9.567 2°39.167 253.9 14.5 250 9.6
2004-05-03 07:33:40 51°9.562 2°39.143 254.3 14.6 251 9.6
2004-05-03 07:33:45 51°9.555 2°39.112 254.8 14.6 251 9.6
2004-05-03 07:33:50 51°9.549 2°39.082 255 14.6 252 9.6
2004-05-03 07:33:55 51°9.543 2°39.051 255.4 14.5 251 9.7
2004-05-03 07:34:01 51°9.535 2°39.015 255.7 14.6 252 9.7
2004-05-03 07:34:05 51°9.53 2°38.991 255.8 14.6 251 9.7
2004-05-03 07:34:10 51°9.523 2°38.96 255.8 14.6 251 9.7
2004-05-03 07:34:16 51°9.515 2°38.924 255.6 14.6 251 9.8
2004-05-03 07:34:20 51°9.51 2°38.899 254.9 14.6 251 9.8
2004-05-03 07:34:25 51°9.503 2°38.869 254.4 14.6 250 9.8
2004-05-03 07:34:30 51°9.496 2°38.839 254 14.6 250 9.8
2004-05-03 07:34:35 51°9.489 2°38.809 254.1 14.6 250 9.8
2004-05-03 07:34:40 51°9.483 2°38.778 254.7 14.6 251 9.8
2004-05-03 07:34:45 51°9.476 2°38.748 255 14.6 251 9.8
2004-05-03 07:34:50 51°9.47 2°38.717 255.4 14.5 251 9.9
2004-05-03 07:34:53 51°9.466 2°38.699 255.5 14.5 251 9.9
2004-05-03 07:35:00 51°9.457 2°38.656 255.5 14.6 251 9.9
2004-05-03 07:35:05 51°9.45 2°38.626 255.4 14.6 251 9.9
2004-05-03 07:35:10 51°9.444 2°38.596 254.9 14.6 251 10
2004-05-03 07:35:14 51°9.438 2°38.572 254.4 14.5 250 10
2004-05-03 07:35:20 51°9.43 2°38.536 253.8 14.6 250 10
2004-05-03 07:35:25 51°9.423 2°38.505 254 14.6 250 10
2004-05-03 07:35:30 51°9.416 2°38.475 254.3 14.6 251 10
2004-05-03 07:35:34 51°9.411 2°38.451 254.7 14.6 251 10
2004-05-03 07:35:40 51°9.403 2°38.414 255.3 14.5 252 10
2004-05-03 07:35:45 51°9.397 2°38.384 255.5 14.5 251 10.1
2004-05-03 07:35:50 51°9.391 2°38.353 255.5 14.5 252 10
2004-05-03 07:35:54 51°9.385 2°38.329 255.6 14.6 252 10
2004-05-03 07:36:00 51°9.378 2°38.292 255.6 14.5 251 10.1
2004-05-03 07:36:05 51°9.371 2°38.262 255.5 14.5 251 10.1
2004-05-03 07:36:09 51°9.366 2°38.238 255.1 14.5 251 10.1
2004-05-03 07:36:14 51°9.36 2°38.208 254.7 14.5 250 10.1
2004-05-03 07:36:20 51°9.351 2°38.171 254.4 14.6 251 10.1
2004-05-03 07:36:25 51°9.345 2°38.141 254.7 14.5 251 10.1
2004-05-03 07:36:30 51°9.339 2°38.111 255 14.5 251 10.1
2004-05-03 07:36:33 51°9.335 2°38.093 255.1 14.5 251 10.1
2004-05-03 07:36:40 51°9.326 2°38.05 255.1 14.5 251 10.2
2004-05-03 07:36:45 51°9.319 2°38.02 255 14.5 250 10.1
2004-05-03 07:36:50 51°9.312 2°37.99 254.6 14.5 251 10.1
2004-05-03 07:36:56 51°9.304 2°37.954 254.7 14.5 251 10.1
2004-05-03 07:37:00 51°9.299 2°37.93 255.1 14.4 251 10.1
2004-05-03 07:37:05 51°9.293 2°37.9 255.1 14.4 251 10.1
2004-05-03 07:37:10 51°9.286 2°37.87 254.9 14.5 251 10.1
2004-05-03 07:37:16 51°9.278 2°37.834 254.7 14.4 251 10.1
2004-05-03 07:37:20 51°9.273 2°37.81 254.7 14.5 251 10.1
2004-05-03 07:37:25 51°9.266 2°37.78 254.8 14.4 251 10.1
2004-05-03 07:37:30 51°9.26 2°37.75 255.4 14.4 252 10.1
2004-05-03 07:37:35 51°9.254 2°37.719 255.6 14.4 252 10.1
2004-05-03 07:37:40 51°9.248 2°37.689 256.3 14.4 252 10.1
2004-05-03 07:37:45 51°9.242 2°37.658 256.4 14.4 253 10.1
2004-05-03 07:37:50 51°9.236 2°37.628 256.5 14.4 253 10.1
2004-05-03 07:37:55 51°9.23 2°37.598 256.4 14.4 252 10.1
2004-05-03 07:38:00 51°9.224 2°37.567 256.2 14.4 251 10.1
2004-05-03 07:38:05 51°9.217 2°37.537 255.7 14.4 251 10.1
2004-05-03 07:38:10 51°9.21 2°37.508 255.2 14.4 251 10.1
2004-05-03 07:38:14 51°9.205 2°37.484 254.7 14.4 250 10.1
2004-05-03 07:38:20 51°9.197 2°37.449 254.6 14.4 250 10.1
2004-05-03 07:38:25 51°9.19 2°37.421 253.7 13.5 248 10
2004-05-03 07:38:30 51°9.183 2°37.395 252 12.9 247 10
2004-05-03 07:38:36 51°9.173 2°37.366 249.9 12.5 245 10
2004-05-03 07:38:40 51°9.166 2°37.349 246 11.8 239 10.1
2004-05-03 07:38:45 51°9.157 2°37.329 239.8 10.8 233 10.2
2004-05-03 07:38:50 51°9.148 2°37.312 235.5 10.4 229 10.2
2004-05-03 07:38:56 51°9.137 2°37.294 231 9.8 226 10.2
2004-05-03 07:39:00 51°9.129 2°37.283 226.9 9.5 223 10.1
2004-05-03 07:39:05 51°9.119 2°37.27 224.2 9 220 10.1
2004-05-03 07:39:10 51°9.11 2°37.259 221.7 8.6 218 10
2004-05-03 07:39:15 51°9.101 2°37.249 219.2 8.2 217 10
2004-05-03 07:39:20 51°9.093 2°37.239 216.5 7.4 213 9.9
2004-05-03 07:39:25 51°9.084 2°37.232 213.4 6.9 211 9.8
2004-05-03 07:39:30 51°9.077 2°37.226 210.3 6.4 210 9.8
2004-05-03 07:39:35 51°9.07 2°37.22 208.9 5.9 210 9.8
2004-05-03 07:39:40 51°9.064 2°37.214 210 5.1 213 9.8
2004-05-03 07:39:45 51°9.058 2°37.208 213.2 4.7 215 9.7
2004-05-03 07:39:50 51°9.054 2°37.202 217.6 4.3 218 9.7
2004-05-03 07:39:54 51°9.051 2°37.197 222.1 3.9 221 9.7
2004-05-03 07:40:00 51°9.047 2°37.191 226.8 3.5 225 9.6
2004-05-03 07:40:05 51°9.045 2°37.186 231.5 2.8 229 9.6
2004-05-03 07:40:09 51°9.043 2°37.182 236.4 2.5 232 9.6
2004-05-03 07:40:16 51°9.041 2°37.177 240.9 2.2 235 9.6
2004-05-03 07:40:20 51°9.039 2°37.174 245 1.7 238 9.6
2004-05-03 07:40:25 51°9.038 2°37.172 248.9 1.4 231 9.6
2004-05-03 07:40:30 51°9.037 2°37.17 252.4 1 233 9.6
2004-05-03 07:40:35 51°9.037 2°37.169 255.6 0.9 228 9.6
2004-05-03 07:40:40 51°9.036 2°37.168 258.5 0.5 206 9.6
2004-05-03 07:40:45 51°9.035 2°37.168 261.1 0.4 182 9.6
2004-05-03 07:40:50 51°9.035 2°37.169 263.4 0.4 156 9.6
2004-05-03 07:40:55 51°9.035 2°37.17 265.2 0.5 137 9.6
2004-05-03 07:41:00 51°9.034 2°37.171 266.7 0.7 114 9.6
2004-05-03 07:41:06 51°9.034 2°37.172 267.9 0.7 119 -999
2004-05-03 07:41:10 51°9.033 2°37.173 269.1 0.5 119 -999
2004-05-03 07:41:16 51°9.033 2°37.173 270.1 0.4 131 -999
2004-05-03 07:41:21 51°9.033 2°37.171 272.4 0.8 253 -999
2004-05-03 07:41:26 51°9.032 2°37.168 276.6 1.4 262 -999
2004-05-03 07:41:30 51°9.033 2°37.164 284.3 1.9 271 -999
2004-05-03 07:41:36 51°9.033 2°37.158 290.3 2.7 284 -999
2004-05-03 07:41:41 51°9.035 2°37.151 298.4 3 292 -999
2004-05-03 07:41:46 51°9.037 2°37.145 306.6 3.3 298 -999
2004-05-03 07:41:50 51°9.04 2°37.14 313.4 3.6 304 9.6
2004-05-03 07:41:55 51°9.044 2°37.134 322.2 3.9 316 9.6
2004-05-03 07:42:00 51°9.048 2°37.129 329.2 3.9 320 9.7
2004-05-03 07:42:05 51°9.054 2°37.125 338.1 4.2 335 9.7
2004-05-03 07:42:10 51°9.06 2°37.122 346.7 4.4 341 9.7
2004-05-03 07:42:15 51°9.066 2°37.121 355.1 4.5 348 9.7
2004-05-03 07:42:20 51°9.072 2°37.121 3.6 4.6 4 9.9
2004-05-03 07:42:25 51°9.079 2°37.123 12.1 4.7 11 9.9
2004-05-03 07:42:30 51°9.085 2°37.127 20.5 4.7 18 9.9
2004-05-03 07:42:35 51°9.09 2°37.132 29 4.8 26 10
2004-05-03 07:42:40 51°9.096 2°37.139 37.6 4.9 41 10
2004-05-03 07:42:45 51°9.1 2°37.147 46.1 4.9 49 10.1
2004-05-03 07:42:50 51°9.104 2°37.156 54.8 4.9 57 10.1
2004-05-03 07:42:54 51°9.106 2°37.164 63.3 5 64 10.1
2004-05-03 07:43:01 51°9.108 2°37.179 70.2 5.1 77 10.2
2004-05-03 07:43:05 51°9.108 2°37.188 80.4 4.9 85 10.1
2004-05-03 07:43:10 51°9.109 2°37.198 85.9 4.6 87 10.1
2004-05-03 07:43:14 51°9.109 2°37.206 88.7 4.5 87 10.2
2004-05-03 07:43:21 51°9.108 2°37.219 91.1 4.2 93 10.2
2004-05-03 07:43:25 51°9.108 2°37.226 93.2 4.1 95 10.1
2004-05-03 07:43:30 51°9.107 2°37.234 94.6 3.8 97 10.1
2004-05-03 07:43:34 51°9.107 2°37.24 97 3.4 98 10.1
2004-05-03 07:43:40 51°9.106 2°37.247 98.7 2.4 102 10
2004-05-03 07:43:45 51°9.105 2°37.251 99.3 1.9 106 10.1
2004-05-03 07:43:50 51°9.104 2°37.253 99.6 1.4 112 10.1
2004-05-03 07:43:55 51°9.104 2°37.254 99.8 0.9 118 10.1
2004-05-03 07:44:00 51°9.103 2°37.255 101.3 0.6 145 10.1
2004-05-03 07:44:05 51°9.102 2°37.254 103.5 0.4 187 10
2004-05-03 07:44:10 51°9.102 2°37.254 106.2 0.5 192 10.1
2004-05-03 07:44:14 51°9.101 2°37.254 109.2 0.5 191 10.1
2004-05-03 07:44:20 51°9.101 2°37.254 112.1 0.5 194 10
2004-05-03 07:44:25 51°9.1 2°37.254 115.1 0.4 194 10
2004-05-03 07:44:30 51°9.099 2°37.253 117.4 0.4 197 10.1
2004-05-03 07:44:33 51°9.099 2°37.253 119.2 0.4 195 10
2004-05-03 07:44:40 51°9.098 2°37.253 120.5 0.4 191 10
2004-05-03 07:44:45 51°9.098 2°37.253 121.9 0.4 193 10
2004-05-03 07:44:50 51°9.097 2°37.253 123.2 0.4 190 10.1
2004-05-03 07:44:54 51°9.097 2°37.253 124.2 0.4 189 10
2004-05-03 07:45:00 51°9.096 2°37.252 125.3 0.4 188 10
2004-05-03 07:45:05 51°9.096 2°37.252 126.2 0.4 188 10
2004-05-03 07:45:10 51°9.095 2°37.252 127 0.3 185 10.1
2004-05-03 07:45:15 51°9.095 2°37.252 127.9 0.4 185 10.1
2004-05-03 07:45:20 51°9.095 2°37.252 128.6 0.3 181 10
2004-05-03 07:45:25 51°9.094 2°37.252 129.7 0.3 185 10
2004-05-03 07:45:30 51°9.093 2°37.252 130.6 0.3 179 10
2004-05-03 07:45:36 51°9.093 2°37.252 131.6 0.4 181 10
2004-05-03 07:45:40 51°9.093 2°37.252 132.4 0.4 179 10
2004-05-03 07:45:45 51°9.092 2°37.252 133.2 0.4 177 10
2004-05-03 07:45:50 51°9.091 2°37.252 134.1 0.4 178 10
2004-05-03 07:45:55 51°9.091 2°37.252 134.9 0.4 177 10
2004-05-03 07:46:00 51°9.09 2°37.252 135.7 0.4 178 10
2004-05-03 07:46:05 51°9.09 2°37.253 136.4 0.4 175 10
2004-05-03 07:46:10 51°9.089 2°37.253 137.1 0.4 178 10
2004-05-03 07:46:14 51°9.089 2°37.253 137.8 0.4 176 10
2004-05-03 07:46:21 51°9.088 2°37.253 138.7 0.4 175 10
2004-05-03 07:46:25 51°9.087 2°37.253 139.5 0.4 175 10
2004-05-03 07:46:30 51°9.087 2°37.253 140.3 0.4 176 10
2004-05-03 07:46:35 51°9.086 2°37.253 141.3 0.5 178 10
2004-05-03 07:46:40 51°9.085 2°37.253 142.2 0.5 177 10
2004-05-03 07:46:45 51°9.085 2°37.253 143.1 0.5 176 10
2004-05-03 07:46:50 51°9.084 2°37.253 143.9 0.5 179 10
2004-05-03 07:46:54 51°9.083 2°37.253 144.7 0.5 176 10
2004-05-03 07:47:00 51°9.083 2°37.253 145.5 0.5 179 10
2004-05-03 07:47:05 51°9.082 2°37.253 146.3 0.5 177 9.9
2004-05-03 07:47:10 51°9.081 2°37.254 147 0.5 178 9.9
2004-05-03 07:47:15 51°9.081 2°37.254 147.5 0.5 180 9.9
2004-05-03 07:47:20 51°9.08 2°37.254 148.2 0.5 179 9.9
2004-05-03 07:47:25 51°9.079 2°37.254 148.7 0.5 181 9.9
2004-05-03 07:47:30 51°9.079 2°37.254 149.3 0.5 178 9.9
2004-05-03 07:47:34 51°9.078 2°37.254 149.9 0.5 176 9.9
2004-05-03 07:47:40 51°9.077 2°37.254 150.3 0.5 181 10
2004-05-03 07:47:45 51°9.076 2°37.254 150.8 0.5 175 9.9
2004-05-03 07:47:50 51°9.076 2°37.254 151.4 0.5 180 9.9
2004-05-03 07:47:55 51°9.075 2°37.254 151.6 0.5 176 9.9
2004-05-03 07:48:00 51°9.074 2°37.254 152.1 0.5 180 9.9
2004-05-03 07:48:05 51°9.073 2°37.254 152.6 0.5 178 9.9
2004-05-03 07:48:10 51°9.073 2°37.254 153 0.5 178 9.9
2004-05-03 07:48:15 51°9.072 2°37.254 153.4 0.5 178 9.9
2004-05-03 07:48:20 51°9.071 2°37.254 153.8 0.5 178 9.9
2004-05-03 07:48:25 51°9.071 2°37.254 154.2 0.5 179 9.9
2004-05-03 07:48:30 51°9.07 2°37.254 154.5 0.5 179 9.9
2004-05-03 07:48:34 51°9.069 2°37.254 154.8 0.5 181 9.8
2004-05-03 07:48:40 51°9.069 2°37.254 155.2 0.5 180 9.9
2004-05-03 07:48:45 51°9.068 2°37.254 155.5 0.5 181 9.9
2004-05-03 07:48:50 51°9.067 2°37.254 155.8 0.5 182 9.9
2004-05-03 07:48:55 51°9.066 2°37.254 156.2 0.5 179 9.9
2004-05-03 07:49:00 51°9.066 2°37.254 156.6 0.5 182 9.9
2004-05-03 07:49:05 51°9.065 2°37.254 157.2 0.5 180 9.9
2004-05-03 07:49:10 51°9.064 2°37.254 157.5 0.6 182 9.8
2004-05-03 07:49:16 51°9.063 2°37.254 157.9 0.5 179 9.8
2004-05-03 07:49:20 51°9.063 2°37.254 158.3 0.6 178 9.8
2004-05-03 07:49:25 51°9.062 2°37.254 158.9 0.6 181 9.8
2004-05-03 07:49:30 51°9.061 2°37.254 159.2 0.6 182 9.9
2004-05-03 07:49:35 51°9.06 2°37.254 159.6 0.6 181 9.8
2004-05-03 07:49:40 51°9.059 2°37.254 160 0.6 180 9.8
2004-05-03 07:49:45 51°9.059 2°37.254 160.3 0.6 180 9.8
2004-05-03 07:49:50 51°9.058 2°37.254 160.5 0.6 181 9.8
2004-05-03 07:49:55 51°9.057 2°37.254 160.8 0.6 181 9.8
2004-05-03 07:50:00 51°9.056 2°37.254 161 0.6 176 9.8
2004-05-03 07:50:05 51°9.055 2°37.254 161.1 0.5 181 9.8
2004-05-03 07:50:10 51°9.055 2°37.254 161.2 0.6 180 9.8
2004-05-03 07:50:15 51°9.054 2°37.254 161.4 0.6 179 9.8
2004-05-03 07:50:21 51°9.053 2°37.254 161.7 0.6 179 9.8
2004-05-03 07:50:25 51°9.052 2°37.254 161.8 0.6 180 9.8
2004-05-03 07:50:30 51°9.051 2°37.254 162.1 0.6 181 9.8
2004-05-03 07:50:34 51°9.051 2°37.254 162.4 0.6 181 9.9
2004-05-03 07:50:40 51°9.05 2°37.254 162.5 0.6 181 9.8
2004-05-03 07:50:45 51°9.049 2°37.254 162.9 0.6 179 9.8
2004-05-03 07:50:50 51°9.048 2°37.254 163.2 0.6 179 9.8
2004-05-03 07:50:55 51°9.047 2°37.254 163.5 0.6 182 9.8
2004-05-03 07:51:00 51°9.047 2°37.254 163.6 0.6 179 9.8
2004-05-03 07:51:05 51°9.046 2°37.254 164 0.6 179 9.8
2004-05-03 07:51:10 51°9.045 2°37.254 164 0.6 182 9.8
2004-05-03 07:51:15 51°9.044 2°37.254 164.2 0.6 179 9.8
2004-05-03 07:51:20 51°9.043 2°37.254 164.5 0.6 182 9.8
2004-05-03 07:51:25 51°9.042 2°37.254 164.7 0.6 179 9.7
2004-05-03 07:51:30 51°9.042 2°37.254 164.9 0.6 179 9.7
2004-05-03 07:51:34 51°9.041 2°37.254 165 0.6 179 9.8
2004-05-03 07:51:40 51°9.04 2°37.254 165.1 0.6 179 9.8
2004-05-03 07:51:45 51°9.039 2°37.254 165.2 0.6 178 9.7
2004-05-03 07:51:50 51°9.039 2°37.254 165.4 0.6 177 9.7
2004-05-03 07:51:54 51°9.038 2°37.254 165.4 0.6 177 9.7
2004-05-03 07:52:00 51°9.037 2°37.255 165.4 0.6 175 9.8
2004-05-03 07:52:05 51°9.036 2°37.255 165.5 0.6 177 9.8
2004-05-03 07:52:10 51°9.035 2°37.255 165.5 0.6 177 9.7
2004-05-03 07:52:16 51°9.034 2°37.255 165.5 0.6 178 9.7
2004-05-03 07:52:20 51°9.034 2°37.255 165.6 0.6 177 9.7
2004-05-03 07:52:25 51°9.033 2°37.255 165.7 0.6 177 9.7
2004-05-03 07:52:30 51°9.032 2°37.255 165.8 0.6 177 9.7
2004-05-03 07:52:35 51°9.031 2°37.255 165.9 0.6 178 9.7
2004-05-03 07:52:40 51°9.03 2°37.255 166 0.6 180 9.7
2004-05-03 07:52:45 51°9.03 2°37.255 166.2 0.6 179 9.7
2004-05-03 07:52:50 51°9.029 2°37.255 166.4 0.6 179 9.7
2004-05-03 07:52:54 51°9.028 2°37.255 166.6 0.6 179 9.7
2004-05-03 07:53:00 51°9.027 2°37.255 166.8 0.6 177 9.8
2004-05-03 07:53:05 51°9.026 2°37.256 167.1 0.6 178 9.7
2004-05-03 07:53:10 51°9.025 2°37.256 167.4 0.6 181 9.7
2004-05-03 07:53:14 51°9.024 2°37.256 167.7 0.6 178 9.7
2004-05-03 07:53:20 51°9.023 2°37.256 168.2 0.6 180 9.7
2004-05-03 07:53:25 51°9.023 2°37.256 168.4 0.6 179 9.7
2004-05-03 07:53:30 51°9.022 2°37.256 168.8 0.6 179 9.7
2004-05-03 07:53:35 51°9.021 2°37.256 169.1 0.6 181 9.7
2004-05-03 07:53:40 51°9.02 2°37.256 169.4 0.6 179 9.7
2004-05-03 07:53:45 51°9.019 2°37.256 169.8 0.6 179 9.7
2004-05-03 07:53:50 51°9.018 2°37.256 170.2 0.6 179 9.7
2004-05-03 07:53:54 51°9.017 2°37.256 170.5 0.6 179 9.7
2004-05-03 07:54:00 51°9.016 2°37.256 170.8 0.6 181 9.7
2004-05-03 07:54:05 51°9.016 2°37.255 171.4 0.6 181 9.7
2004-05-03 07:54:10 51°9.015 2°37.255 171.8 0.6 182 9.7
2004-05-03 07:54:15 51°9.014 2°37.255 172.2 0.6 183 9.6
2004-05-03 07:54:20 51°9.013 2°37.255 172.7 0.6 179 9.7
2004-05-03 07:54:25 51°9.012 2°37.255 173.2 0.6 182 9.6
2004-05-03 07:54:29 51°9.011 2°37.255 173.6 0.6 181 9.7
2004-05-03 07:54:35 51°9.01 2°37.255 174.1 0.6 183 9.6
2004-05-03 07:54:40 51°9.009 2°37.255 174.5 0.6 181 9.6
2004-05-03 07:54:45 51°9.009 2°37.255 174.9 0.6 180 9.6
2004-05-03 07:54:50 51°9.008 2°37.255 175.5 0.6 183 9.6
2004-05-03 07:54:55 51°9.007 2°37.255 175.7 0.6 180 9.6
2004-05-03 07:55:00 51°9.006 2°37.255 176.1 0.6 184 9.6
2004-05-03 07:55:05 51°9.005 2°37.255 176.4 0.6 183 9.7
2004-05-03 07:55:10 51°9.004 2°37.255 176.8 0.6 184 9.6
2004-05-03 07:55:14 51°9.003 2°37.255 177.3 0.7 185 9.6
2004-05-03 07:55:20 51°9.003 2°37.255 177.8 0.6 182 9.6
2004-05-03 07:55:25 51°9.002 2°37.254 178.3 0.7 188 9.6
2004-05-03 07:55:30 51°9.001 2°37.254 178.7 0.7 184 9.6
2004-05-03 07:55:35 51°9 2°37.254 179.2 0.7 185 9.6
2004-05-03 07:55:40 51°8.999 2°37.254 179.5 0.6 184 9.6
2004-05-03 07:55:45 51°8.998 2°37.254 180 0.7 185 9.7
2004-05-03 07:55:50 51°8.997 2°37.254 180.3 0.7 185 9.6
2004-05-03 07:55:56 51°8.996 2°37.254 180.7 0.6 182 9.6
2004-05-03 07:56:00 51°8.995 2°37.254 180.8 0.7 182 9.6
2004-05-03 07:56:05 51°8.994 2°37.253 181 0.7 186 9.6
2004-05-03 07:56:10 51°8.993 2°37.253 181.2 0.6 181 9.6
2004-05-03 07:56:14 51°8.993 2°37.253 181.4 0.6 183 9.6
2004-05-03 07:56:20 51°8.992 2°37.253 181.4 0.7 181 9.6
2004-05-03 07:56:25 51°8.991 2°37.253 181.5 0.6 181 9.5
2004-05-03 07:56:30 51°8.99 2°37.253 181.7 0.7 181 9.6
2004-05-03 07:56:35 51°8.989 2°37.253 181.8 0.6 180 9.6
2004-05-03 07:56:40 51°8.988 2°37.253 181.8 0.7 183 9.6
2004-05-03 07:56:45 51°8.987 2°37.253 181.8 0.7 180 9.6
2004-05-03 07:56:50 51°8.987 2°37.253 181.7 0.6 178 9.5
2004-05-03 07:56:55 51°8.986 2°37.253 181.5 0.6 180 9.6
2004-05-03 07:57:00 51°8.985 2°37.253 181.4 0.6 182 9.6
2004-05-03 07:57:05 51°8.984 2°37.253 181.4 0.6 179 9.6
2004-05-03 07:57:10 51°8.983 2°37.253 181.4 0.7 180 9.5
2004-05-03 07:57:14 51°8.982 2°37.254 181.3 0.7 181 9.5
2004-05-03 07:57:20 51°8.981 2°37.254 181.3 0.7 182 9.5
2004-05-03 07:57:25 51°8.981 2°37.254 181.3 0.6 180 9.5
2004-05-03 07:57:30 51°8.98 2°37.254 181.3 0.6 181 9.5
2004-05-03 07:57:34 51°8.979 2°37.254 181.4 0.7 180 9.5
2004-05-03 07:57:41 51°8.978 2°37.254 181.4 0.6 182 9.5
2004-05-03 07:57:45 51°8.977 2°37.254 181.4 0.6 179 9.5
2004-05-03 07:57:50 51°8.976 2°37.254 181.4 0.7 181 9.6
2004-05-03 07:57:55 51°8.975 2°37.254 181.3 0.6 181 9.5
2004-05-03 07:58:00 51°8.974 2°37.254 181.3 0.7 179 9.5
2004-05-03 07:58:05 51°8.974 2°37.254 181.3 0.7 182 9.5
2004-05-03 07:58:10 51°8.973 2°37.254 181.3 0.7 182 9.5
2004-05-03 07:58:16 51°8.971 2°37.254 181.4 0.8 180 9.5
2004-05-03 07:58:20 51°8.97 2°37.253 181.9 0.9 183 9.5
2004-05-03 07:58:25 51°8.969 2°37.253 182.8 1 181 9.5
2004-05-03 07:58:30 51°8.967 2°37.253 183.9 1.1 181 9.5
2004-05-03 07:58:34 51°8.966 2°37.253 185.4 1.2 181 9.5
2004-05-03 07:58:40 51°8.964 2°37.253 186.5 1.3 184 9.5
2004-05-03 07:58:45 51°8.962 2°37.253 188.3 1.3 185 9.5
2004-05-03 07:58:50 51°8.96 2°37.253 190.1 1.4 186 9.5
2004-05-03 07:58:55 51°8.958 2°37.252 192.7 1.4 189 9.5
2004-05-03 07:59:00 51°8.956 2°37.251 194.2 1.5 192 9.5
2004-05-03 07:59:05 51°8.954 2°37.251 196.3 1.6 191 9.4
2004-05-03 07:59:10 51°8.951 2°37.25 198.5 1.6 193 9.4
2004-05-03 07:59:14 51°8.95 2°37.249 200.6 1.6 195 9.4
2004-05-03 07:59:20 51°8.947 2°37.248 202.6 1.7 199 9.4
2004-05-03 07:59:25 51°8.945 2°37.247 204.8 1.7 198 9.4
2004-05-03 07:59:29 51°8.943 2°37.245 207 1.8 202 9.4
2004-05-03 07:59:34 51°8.94 2°37.244 209 1.8 201 9.4
2004-05-03 07:59:40 51°8.938 2°37.242 211.2 1.8 205 9.4
2004-05-03 07:59:45 51°8.935 2°37.24 213.7 1.9 206 9.4
2004-05-03 07:59:50 51°8.933 2°37.238 215.8 2 209 9.4
2004-05-03 07:59:55 51°8.93 2°37.235 218.6 2.1 211 9.4
2004-05-03 08:00:00 51°8.928 2°37.232 221.8 2.2 214 9.4
2004-05-03 08:00:05 51°8.925 2°37.229 225.3 2.3 220 9.3
2004-05-03 08:00:10 51°8.923 2°37.226 228.7 2.3 223 9.3
2004-05-03 08:00:14 51°8.921 2°37.223 232.3 2.4 226 9.3
2004-05-03 08:00:20 51°8.919 2°37.218 236.1 2.5 230 9.3
2004-05-03 08:00:24 51°8.917 2°37.214 239.9 2.5 234 9.3
2004-05-03 08:00:30 51°8.915 2°37.209 243.8 2.5 236 9.3
2004-05-03 08:00:34 51°8.913 2°37.205 247.6 2.6 239 9.3